Time,TemperatureF,DewpointF,PressureIn,WindDirection,WindDirectionDegrees,WindSpeedMPH,WindSpeedGustMPH,Humidity,HourlyPrecipIn,Conditions,Clouds,dailyrainin,SoftwareType,DateUTC
2013-04-24 00:01:00,38.3,36.2,29.93,North,0,5.6,11.3,92,0.00,,,0.00,WUHU216HW,2013-04-24 05:01:00,
2013-04-24 00:06:00,38.3,36.2,29.93,NNW,337,4.5,7.2,92,0.00,,,0.00,WUHU216HW,2013-04-24 05:06:00,
2013-04-24 00:11:00,38.3,35.9,29.93,NW,320,5.9,11.3,91,0.00,,,0.00,WUHU216HW,2013-04-24 05:11:00,
2013-04-24 00:16:00,38.2,35.7,29.92,NNW,343,6.5,11.3,91,0.00,,,0.00,WUHU216HW,2013-04-24 05:16:00,
2013-04-24 00:21:00,38.2,35.7,29.92,NNW,335,6.4,10.2,91,0.00,,,0.00,WUHU216HW,2013-04-24 05:21:00,
2013-04-24 00:26:00,38.2,35.7,29.92,North,352,7.4,9.7,91,0.00,,,0.00,WUHU216HW,2013-04-24 05:26:00,
2013-04-24 00:31:00,38.2,35.7,29.93,NW,315,5.6,9.4,91,0.00,,,0.00,WUHU216HW,2013-04-24 05:31:00,
2013-04-24 00:36:00,38.2,35.7,29.93,NW,324,4.7,8.9,91,0.00,,,0.00,WUHU216HW,2013-04-24 05:36:00,
2013-04-24 00:41:00,38.2,36.0,29.92,North,1,4.3,7.6,92,0.00,,,0.00,WUHU216HW,2013-04-24 05:41:00,
2013-04-24 00:46:00,38.2,35.7,29.93,NW,320,6.8,10.2,91,0.00,,,0.00,WUHU216HW,2013-04-24 05:46:00,
2013-04-24 00:51:00,38.2,35.7,29.92,NNW,335,4.5,10.2,91,0.00,,,0.00,WUHU216HW,2013-04-24 05:51:00,
2013-04-24 00:56:00,38.2,35.7,29.92,NNW,344,5.8,8.6,91,0.00,,,0.00,WUHU216HW,2013-04-24 05:56:00,
2013-04-24 01:01:00,38.2,35.7,29.93,NE,45,5.6,8.6,91,0.00,,,0.00,WUHU216HW,2013-04-24 06:01:00,
2013-04-24 01:06:00,38.2,35.7,29.94,NNW,338,5.2,6.5,91,0.00,,,0.00,WUHU216HW,2013-04-24 06:06:00,
2013-04-24 01:11:00,38.2,35.7,29.94,NW,315,4.8,7.6,91,0.00,,,0.00,WUHU216HW,2013-04-24 06:11:00,
2013-04-24 01:16:00,38.2,35.7,29.94,NE,45,6.7,7.6,91,0.00,,,0.00,WUHU216HW,2013-04-24 06:16:00,
2013-04-24 01:21:00,38.0,35.3,29.93,NNW,338,5.4,9.1,90,0.00,,,0.00,WUHU216HW,2013-04-24 06:21:00,
2013-04-24 01:26:00,38.0,35.3,29.94,North,0,4.1,9.1,90,0.00,,,0.00,WUHU216HW,2013-04-24 06:26:00,
2013-04-24 01:31:00,37.8,35.1,29.95,North,351,4.6,7.8,90,0.00,,,0.00,WUHU216HW,2013-04-24 06:31:00,
2013-04-24 01:36:00,37.8,35.1,29.94,NW,315,6.5,7.8,90,0.00,,,0.00,WUHU216HW,2013-04-24 06:36:00,
2013-04-24 01:41:00,37.8,35.1,29.94,NNW,338,6.1,8.9,90,0.00,,,0.00,WUHU216HW,2013-04-24 06:41:00,
2013-04-24 01:46:00,37.8,35.1,29.94,North,0,8.0,8.9,90,0.00,,,0.00,WUHU216HW,2013-04-24 06:46:00,
2013-04-24 01:51:00,37.8,35.1,29.94,North,354,6.5,10.2,90,0.00,,,0.00,WUHU216HW,2013-04-24 06:51:00,
2013-04-24 01:56:00,37.8,35.1,29.93,NNW,338,4.8,10.2,90,0.00,,,0.00,WUHU216HW,2013-04-24 06:56:00,
2013-04-24 02:01:00,37.8,35.1,29.93,NNW,338,7.0,9.4,90,0.00,,,0.00,WUHU216HW,2013-04-24 07:01:00,
2013-04-24 02:06:00,37.8,35.1,29.93,NNW,338,6.2,11.8,90,0.00,,,0.00,WUHU216HW,2013-04-24 07:06:00,
2013-04-24 02:11:00,37.8,35.1,29.94,NNW,338,9.1,11.8,90,0.00,,,0.00,WUHU216HW,2013-04-24 07:11:00,
2013-04-24 02:16:00,38.0,35.3,29.93,NNW,338,10.4,10.4,90,0.00,,,0.00,WUHU216HW,2013-04-24 07:16:00,
2013-04-24 02:21:00,38.0,35.3,29.93,NNW,334,3.7,10.4,90,0.00,,,0.00,WUHU216HW,2013-04-24 07:21:00,
2013-04-24 02:26:00,38.0,35.3,29.93,NNW,338,8.3,10.4,90,0.00,,,0.00,WUHU216HW,2013-04-24 07:26:00,
2013-04-24 02:31:00,38.0,35.3,29.93,NNW,341,3.9,8.3,90,0.00,,,0.00,WUHU216HW,2013-04-24 07:31:00,
2013-04-24 02:36:00,38.2,35.5,29.94,NNW,338,4.3,8.3,90,0.00,,,0.00,WUHU216HW,2013-04-24 07:36:00,
2013-04-24 02:41:00,38.2,35.5,29.94,NW,323,4.6,6.5,90,0.00,,,0.00,WUHU216HW,2013-04-24 07:41:00,
2013-04-24 02:46:00,38.2,34.9,29.94,North,351,5.8,9.4,88,0.00,,,0.00,WUHU216HW,2013-04-24 07:46:00,
2013-04-24 02:51:00,38.3,35.1,29.94,NW,315,7.0,9.4,88,0.00,,,0.00,WUHU216HW,2013-04-24 07:51:00,
2013-04-24 02:56:00,38.3,35.4,29.93,NNW,338,4.8,8.3,89,0.00,,,0.00,WUHU216HW,2013-04-24 07:56:00,
2013-04-24 03:01:00,38.3,35.4,29.92,NE,45,9.7,9.7,89,0.00,,,0.00,WUHU216HW,2013-04-24 08:01:00,
2013-04-24 03:06:00,38.3,35.4,29.92,NNW,338,10.2,10.2,89,0.00,,,0.00,WUHU216HW,2013-04-24 08:06:00,
2013-04-24 03:11:00,38.3,35.4,29.92,NNW,338,8.6,13.2,89,0.00,,,0.00,WUHU216HW,2013-04-24 08:11:00,
2013-04-24 03:16:00,38.3,35.4,29.92,NNW,342,4.2,13.2,89,0.00,,,0.00,WUHU216HW,2013-04-24 08:16:00,
2013-04-24 03:21:00,38.3,35.4,29.92,North,0,7.2,9.1,89,0.00,,,0.00,WUHU216HW,2013-04-24 08:21:00,
2013-04-24 03:26:00,38.3,35.4,29.91,NNW,338,6.5,9.1,89,0.00,,,0.00,WUHU216HW,2013-04-24 08:26:00,
2013-04-24 03:31:00,38.2,34.9,29.92,North,0,10.4,10.4,88,0.00,,,0.00,WUHU216HW,2013-04-24 08:31:00,
2013-04-24 03:36:00,38.2,34.6,29.92,NE,45,7.6,12.8,87,0.00,,,0.00,WUHU216HW,2013-04-24 08:36:00,
2013-04-24 03:41:00,38.2,34.6,29.92,NNE,20,7.2,12.8,87,0.00,,,0.00,WUHU216HW,2013-04-24 08:41:00,
2013-04-24 03:46:00,38.2,34.9,29.92,NNW,338,4.6,11.8,88,0.00,,,0.00,WUHU216HW,2013-04-24 08:46:00,
2013-04-24 03:51:00,38.2,34.9,29.93,North,0,3.0,8.3,88,0.00,,,0.00,WUHU216HW,2013-04-24 08:51:00,
2013-04-24 03:56:00,38.2,34.6,29.94,North,0,7.6,10.4,87,0.00,,,0.00,WUHU216HW,2013-04-24 08:56:00,
2013-04-24 04:01:00,38.0,34.4,29.96,NW,315,3.5,10.4,87,0.00,,,0.00,WUHU216HW,2013-04-24 09:01:00,
2013-04-24 04:06:00,38.0,34.4,29.95,NNE,21,8.4,12.4,87,0.00,,,0.00,WUHU216HW,2013-04-24 09:06:00,
2013-04-24 04:11:00,38.0,34.4,29.95,NNW,338,7.6,12.4,87,0.00,,,0.00,WUHU216HW,2013-04-24 09:11:00,
2013-04-24 04:16:00,38.0,34.4,29.97,North,350,3.3,12.4,87,0.00,,,0.00,WUHU216HW,2013-04-24 09:16:00,
2013-04-24 04:21:00,38.0,34.4,29.97,North,357,4.6,9.4,87,0.00,,,0.00,WUHU216HW,2013-04-24 09:21:00,
2013-04-24 04:27:00,38.0,34.4,29.96,North,0,5.6,9.4,87,0.00,,,0.00,WUHU216HW,2013-04-24 09:27:00,
2013-04-24 04:32:00,38.0,34.4,29.97,NNW,331,5.7,10.7,87,0.00,,,0.00,WUHU216HW,2013-04-24 09:32:00,
2013-04-24 04:37:00,38.0,34.4,29.96,ENE,68,5.4,11.3,87,0.00,,,0.00,WUHU216HW,2013-04-24 09:37:00,
2013-04-24 04:42:00,38.0,34.8,29.95,North,353,4.3,11.3,88,0.00,,,0.00,WUHU216HW,2013-04-24 09:42:00,
2013-04-24 04:47:00,38.0,34.8,29.95,North,7,2.3,8.3,88,0.00,,,0.00,WUHU216HW,2013-04-24 09:47:00,
2013-04-24 04:52:00,37.8,34.6,29.95,NNW,333,4.3,8.9,88,0.00,,,0.00,WUHU216HW,2013-04-24 09:52:00,
2013-04-24 04:57:00,37.8,34.6,29.95,NNW,347,3.4,8.9,88,0.00,,,0.00,WUHU216HW,2013-04-24 09:57:00,
2013-04-24 05:02:00,37.8,34.6,29.95,NNW,338,4.3,7.8,88,0.00,,,0.00,WUHU216HW,2013-04-24 10:02:00,
2013-04-24 05:07:00,37.8,34.2,29.96,NNW,338,4.8,7.8,87,0.00,,,0.00,WUHU216HW,2013-04-24 10:07:00,
2013-04-24 05:12:00,37.6,34.0,29.96,North,9,3.2,10.7,87,0.00,,,0.00,WUHU216HW,2013-04-24 10:12:00,
2013-04-24 05:17:00,37.8,34.2,29.96,NNE,23,8.3,10.7,87,0.00,,,0.00,WUHU216HW,2013-04-24 10:17:00,
2013-04-24 05:22:00,37.6,34.0,29.96,NNW,338,4.1,10.2,87,0.00,,,0.00,WUHU216HW,2013-04-24 10:22:00,
2013-04-24 05:27:00,37.4,33.8,29.94,NNW,338,7.0,8.9,87,0.00,,,0.00,WUHU216HW,2013-04-24 10:27:00,
2013-04-24 05:32:00,37.4,34.2,29.95,East,90,8.6,8.6,88,0.00,,,0.00,WUHU216HW,2013-04-24 10:32:00,
2013-04-24 05:37:00,37.3,33.7,29.96,NNE,20,6.0,8.6,87,0.00,,,0.00,WUHU216HW,2013-04-24 10:37:00,
2013-04-24 05:42:00,37.3,33.7,29.96,NNW,347,5.3,9.1,87,0.00,,,0.00,WUHU216HW,2013-04-24 10:42:00,
2013-04-24 05:47:00,37.4,33.8,29.96,North,7,3.3,9.1,87,0.00,,,0.00,WUHU216HW,2013-04-24 10:47:00,
2013-04-24 05:52:00,37.4,33.8,29.96,WNW,293,6.1,9.1,87,0.00,,,0.00,WUHU216HW,2013-04-24 10:52:00,
2013-04-24 05:57:00,37.4,33.8,29.97,North,0,7.6,11.3,87,0.00,,,0.00,WUHU216HW,2013-04-24 10:57:00,
2013-04-24 06:02:00,37.4,33.8,29.97,NNW,336,3.6,11.3,87,0.00,,,0.00,WUHU216HW,2013-04-24 11:02:00,
2013-04-24 06:07:00,37.4,33.8,29.97,NNE,12,2.8,7.6,87,0.00,,,0.00,WUHU216HW,2013-04-24 11:07:00,
2013-04-24 06:12:00,37.4,33.8,29.97,North,8,4.5,7.2,87,0.00,,,0.00,WUHU216HW,2013-04-24 11:12:00,
2013-04-24 06:17:00,37.3,33.7,29.97,North,354,4.6,7.2,87,0.00,,,0.00,WUHU216HW,2013-04-24 11:17:00,
2013-04-24 06:22:00,37.1,33.5,29.97,North,3,4.0,8.6,87,0.00,,,0.00,WUHU216HW,2013-04-24 11:22:00,
2013-04-24 06:27:00,37.1,33.5,29.97,NNW,343,3.3,8.6,87,0.00,,,0.00,WUHU216HW,2013-04-24 11:27:00,
2013-04-24 06:32:00,37.1,33.5,29.97,NE,45,5.4,8.6,87,0.00,,,0.00,WUHU216HW,2013-04-24 11:32:00,
2013-04-24 06:37:00,37.1,33.5,29.97,NNE,15,3.0,6.7,87,0.00,,,0.00,WUHU216HW,2013-04-24 11:37:00,
2013-04-24 06:42:00,37.1,33.9,29.98,North,359,4.2,9.1,88,0.00,,,0.00,WUHU216HW,2013-04-24 11:42:00,
2013-04-24 06:47:00,37.1,33.5,29.98,NNW,338,5.2,9.1,87,0.00,,,0.00,WUHU216HW,2013-04-24 11:47:00,
2013-04-24 06:52:00,36.9,33.3,29.98,North,0,4.6,8.3,87,0.00,,,0.00,WUHU216HW,2013-04-24 11:52:00,
2013-04-24 06:57:00,36.9,33.3,29.97,NW,315,2.2,8.3,87,0.00,,,0.00,WUHU216HW,2013-04-24 11:57:00,
2013-04-24 07:02:00,36.9,33.7,29.97,North,0,5.9,6.1,88,0.00,,,0.00,WUHU216HW,2013-04-24 12:02:00,
2013-04-24 07:07:00,36.9,33.7,29.97,North,9,3.0,7.6,88,0.00,,,0.00,WUHU216HW,2013-04-24 12:07:00,
2013-04-24 07:12:00,36.9,33.7,29.97,NNW,344,4.0,9.1,88,0.00,,,0.00,WUHU216HW,2013-04-24 12:12:00,
2013-04-24 07:17:00,36.9,33.7,29.98,NNW,336,3.7,9.7,88,0.00,,,0.00,WUHU216HW,2013-04-24 12:17:00,
2013-04-24 07:22:00,36.7,33.5,29.98,NNW,348,4.2,9.7,88,0.00,,,0.00,WUHU216HW,2013-04-24 12:22:00,
2013-04-24 07:27:00,36.9,33.7,29.98,NNW,344,3.4,8.6,88,0.00,,,0.00,WUHU216HW,2013-04-24 12:27:00,
2013-04-24 07:32:00,36.9,33.9,29.98,NNW,338,5.2,6.1,89,0.00,,,0.00,WUHU216HW,2013-04-24 12:32:00,
2013-04-24 07:37:00,36.9,33.9,29.98,NNE,23,6.5,6.5,89,0.00,,,0.00,WUHU216HW,2013-04-24 12:37:00,
2013-04-24 07:42:00,36.9,33.9,29.98,NNW,348,4.7,7.2,89,0.00,,,0.00,WUHU216HW,2013-04-24 12:42:00,
2013-04-24 07:47:00,37.1,34.1,29.98,NNW,338,3.0,7.2,89,0.00,,,0.00,WUHU216HW,2013-04-24 12:47:00,
2013-04-24 07:52:00,37.3,34.3,29.98,NNW,340,2.4,6.1,89,0.00,,,0.00,WUHU216HW,2013-04-24 12:52:00,
2013-04-24 07:57:00,37.3,34.3,29.98,NNW,338,4.3,5.6,89,0.00,,,0.00,WUHU216HW,2013-04-24 12:57:00,
2013-04-24 08:02:00,37.4,34.7,29.98,NNW,340,2.3,5.6,90,0.00,,,0.00,WUHU216HW,2013-04-24 13:02:00,
2013-04-24 08:07:00,37.4,34.7,29.98,NNW,338,3.0,4.3,90,0.00,,,0.00,WUHU216HW,2013-04-24 13:07:00,
2013-04-24 08:12:00,37.6,34.7,29.98,West,270,7.8,7.8,89,0.00,,,0.00,WUHU216HW,2013-04-24 13:12:00,
2013-04-24 08:17:00,37.6,34.7,29.98,NW,325,3.4,7.8,89,0.00,,,0.00,WUHU216HW,2013-04-24 13:17:00,
2013-04-24 08:22:00,37.8,34.8,29.98,North,358,3.8,8.3,89,0.00,,,0.00,WUHU216HW,2013-04-24 13:22:00,
2013-04-24 08:27:00,37.8,34.6,29.97,NNW,339,2.7,8.3,88,0.00,,,0.00,WUHU216HW,2013-04-24 13:27:00,
2013-04-24 08:32:00,37.8,34.2,29.97,North,356,5.3,8.0,87,0.00,,,0.00,WUHU216HW,2013-04-24 13:32:00,
2013-04-24 08:37:00,37.8,34.2,29.97,NNW,330,3.3,8.0,87,0.00,,,0.00,WUHU216HW,2013-04-24 13:37:00,
2013-04-24 08:42:00,38.0,34.8,29.97,North,5,5.0,7.2,88,0.00,,,0.00,WUHU216HW,2013-04-24 13:42:00,
2013-04-24 08:47:00,38.2,34.9,29.96,NNW,348,5.0,8.9,88,0.00,,,0.00,WUHU216HW,2013-04-24 13:47:00,
2013-04-24 08:52:00,38.3,34.7,29.96,NNW,338,1.6,8.9,87,0.00,,,0.00,WUHU216HW,2013-04-24 13:52:00,
2013-04-24 08:57:00,38.3,34.7,29.97,NW,315,3.0,7.2,87,0.00,,,0.00,WUHU216HW,2013-04-24 13:57:00,
2013-04-24 09:02:00,38.5,34.9,29.98,NNW,335,3.1,4.8,87,0.00,,,0.00,WUHU216HW,2013-04-24 14:02:00,
2013-04-24 09:07:00,38.2,34.3,29.98,NNW,337,5.6,6.7,86,0.00,,,0.00,WUHU216HW,2013-04-24 14:07:00,
2013-04-24 09:12:00,38.2,34.3,29.98,NNW,338,4.1,6.7,86,0.00,,,0.00,WUHU216HW,2013-04-24 14:12:00,
2013-04-24 09:17:00,38.5,34.7,29.99,NNW,338,6.5,6.5,86,0.00,,,0.00,WUHU216HW,2013-04-24 14:17:00,
2013-04-24 09:22:00,38.5,34.4,29.99,North,0,2.2,7.2,85,0.00,,,0.00,WUHU216HW,2013-04-24 14:22:00,
2013-04-24 09:27:00,38.5,34.4,29.99,NNW,338,3.0,7.2,85,0.00,,,0.00,WUHU216HW,2013-04-24 14:27:00,
2013-04-24 09:32:00,38.5,33.9,30.00,NW,326,3.4,6.7,83,0.00,,,0.00,WUHU216HW,2013-04-24 14:32:00,
2013-04-24 09:37:00,38.5,33.5,30.01,North,0,4.8,6.7,82,0.00,,,0.00,WUHU216HW,2013-04-24 14:37:00,
2013-04-24 09:42:00,38.5,33.2,30.01,North,11,5.7,9.7,81,0.00,,,0.00,WUHU216HW,2013-04-24 14:42:00,
2013-04-24 09:47:00,38.5,33.5,30.02,North,0,4.8,9.7,82,0.00,,,0.00,WUHU216HW,2013-04-24 14:47:00,
2013-04-24 09:52:00,38.7,33.7,30.02,NNW,337,4.5,6.7,82,0.00,,,0.00,WUHU216HW,2013-04-24 14:52:00,
2013-04-24 09:57:00,38.7,33.7,30.02,NNW,338,3.7,8.6,82,0.00,,,0.00,WUHU216HW,2013-04-24 14:57:00,
2013-04-24 10:02:00,38.9,33.8,30.03,NNW,334,1.6,8.6,82,0.00,,,0.00,WUHU216HW,2013-04-24 15:02:00,
2013-04-24 10:09:00,38.9,33.8,30.03,NNW,327,2.4,5.6,82,0.00,,,0.00,WUHU216HW,2013-04-24 15:09:00,
2013-04-24 10:14:00,39.1,34.0,30.03,NNW,338,4.1,5.4,82,0.00,,,0.00,WUHU216HW,2013-04-24 15:14:00,
2013-04-24 10:19:00,39.1,33.8,30.04,NNW,338,2.4,5.4,81,0.00,,,0.00,WUHU216HW,2013-04-24 15:19:00,
2013-04-24 10:24:00,39.1,33.5,30.04,North,0,4.8,5.4,80,0.00,,,0.00,WUHU216HW,2013-04-24 15:24:00,
2013-04-24 10:29:00,38.9,33.6,30.03,NNW,339,1.7,5.4,81,0.00,,,0.00,WUHU216HW,2013-04-24 15:29:00,
2013-04-24 10:34:00,39.1,33.5,30.03,NW,315,4.1,4.8,80,0.00,,,0.00,WUHU216HW,2013-04-24 15:34:00,
2013-04-24 10:39:00,38.9,32.9,30.03,NW,318,4.0,5.9,79,0.00,,,0.00,WUHU216HW,2013-04-24 15:39:00,
2013-04-24 10:44:00,38.9,32.9,30.03,NNW,338,3.0,5.9,79,0.00,,,0.00,WUHU216HW,2013-04-24 15:44:00,
2013-04-24 10:49:00,38.9,32.9,30.03,NW,318,3.0,5.4,79,0.00,,,0.00,WUHU216HW,2013-04-24 15:49:00,
2013-04-24 10:54:00,39.2,33.3,30.03,NW,315,2.2,6.5,79,0.00,,,0.00,WUHU216HW,2013-04-24 15:54:00,
2013-04-24 10:59:00,39.4,33.1,30.03,NW,324,2.6,6.5,78,0.00,,,0.00,WUHU216HW,2013-04-24 15:59:00,
2013-04-24 11:04:00,39.4,32.8,30.03,NNW,338,3.0,4.8,77,0.00,,,0.00,WUHU216HW,2013-04-24 16:04:00,
2013-04-24 11:09:00,39.4,33.1,30.03,NNW,338,1.6,4.3,78,0.00,,,0.00,WUHU216HW,2013-04-24 16:09:00,
2013-04-24 11:14:00,39.4,33.1,30.03,NW,326,4.6,6.5,78,0.00,,,0.00,WUHU216HW,2013-04-24 16:14:00,
2013-04-24 11:19:00,39.4,33.5,30.03,NNW,330,2.8,6.5,79,0.00,,,0.00,WUHU216HW,2013-04-24 16:19:00,
2013-04-24 11:24:00,39.4,33.1,30.03,NNW,338,4.1,7.8,78,0.00,,,0.00,WUHU216HW,2013-04-24 16:24:00,
2013-04-24 11:29:00,39.6,32.9,30.03,North,4,3.1,7.8,77,0.00,,,0.00,WUHU216HW,2013-04-24 16:29:00,
2013-04-24 11:34:00,40.0,33.3,30.03,NNW,338,4.1,6.1,77,0.00,,,0.00,WUHU216HW,2013-04-24 16:34:00,
2013-04-24 11:39:00,40.3,33.3,30.03,NW,315,4.8,9.1,76,0.00,,,0.00,WUHU216HW,2013-04-24 16:39:00,
2013-04-24 11:44:00,40.3,32.9,30.04,NNW,338,2.6,9.1,75,0.00,,,0.00,WUHU216HW,2013-04-24 16:44:00,
2013-04-24 11:49:00,40.5,32.1,30.04,NNW,338,5.4,6.7,72,0.00,,,0.00,WUHU216HW,2013-04-24 16:49:00,
2013-04-24 11:54:00,40.5,31.9,30.04,NW,315,4.1,8.0,71,0.00,,,0.00,WUHU216HW,2013-04-24 16:54:00,
2013-04-24 11:59:00,40.5,31.5,30.04,NW,315,3.2,8.0,70,0.00,,,0.00,WUHU216HW,2013-04-24 16:59:00,
2013-04-24 12:04:00,40.5,31.5,30.05,NW,322,2.7,4.8,70,0.00,,,0.00,WUHU216HW,2013-04-24 17:04:00,
2013-04-24 12:09:00,40.9,31.5,30.05,NNW,339,3.9,6.1,69,0.00,,,0.00,WUHU216HW,2013-04-24 17:09:00,
2013-04-24 12:14:00,40.7,31.3,30.05,NNW,342,2.7,6.5,69,0.00,,,0.00,WUHU216HW,2013-04-24 17:14:00,
2013-04-24 12:19:00,41.0,32.0,30.05,NNW,338,3.0,7.2,70,0.00,,,0.00,WUHU216HW,2013-04-24 17:19:00,
2013-04-24 12:24:00,41.0,31.3,30.05,NW,317,4.1,7.2,68,0.00,,,0.00,WUHU216HW,2013-04-24 17:24:00,
2013-04-24 12:29:00,41.8,32.4,30.06,NNW,338,5.6,8.0,69,0.00,,,0.00,WUHU216HW,2013-04-24 17:29:00,
2013-04-24 12:34:00,42.1,32.8,30.06,NW,325,3.3,8.0,69,0.00,,,0.00,WUHU216HW,2013-04-24 17:34:00,
2013-04-24 12:39:00,42.5,32.0,30.06,North,3,7.6,9.7,66,0.00,,,0.00,WUHU216HW,2013-04-24 17:39:00,
2013-04-24 12:44:00,42.7,32.5,30.06,NNW,335,2.5,9.7,67,0.00,,,0.00,WUHU216HW,2013-04-24 17:44:00,
2013-04-24 12:49:00,42.5,32.3,30.06,NW,315,2.4,5.4,67,0.00,,,0.00,WUHU216HW,2013-04-24 17:49:00,
2013-04-24 12:54:00,42.8,32.7,30.06,NW,315,2.2,5.2,67,0.00,,,0.00,WUHU216HW,2013-04-24 17:54:00,
2013-04-24 12:59:00,43.2,32.6,30.06,NNW,338,4.8,7.6,66,0.00,,,0.00,WUHU216HW,2013-04-24 17:59:00,
2013-04-24 13:04:00,43.6,32.6,30.07,NNW,338,4.3,7.6,65,0.00,,,0.00,WUHU216HW,2013-04-24 18:04:00,
2013-04-24 13:09:00,43.4,32.4,30.06,NNW,338,1.9,5.4,65,0.00,,,0.00,WUHU216HW,2013-04-24 18:09:00,
2013-04-24 13:14:00,43.6,32.6,30.07,NNE,23,5.6,7.2,65,0.00,,,0.00,WUHU216HW,2013-04-24 18:14:00,
2013-04-24 13:19:00,43.7,32.0,30.07,NW,315,4.6,10.7,63,0.00,,,0.00,WUHU216HW,2013-04-24 18:19:00,
2013-04-24 13:24:00,43.6,32.1,30.07,North,0,4.8,10.7,64,0.00,,,0.00,WUHU216HW,2013-04-24 18:24:00,
2013-04-24 13:29:00,44.3,32.5,30.07,NNW,338,6.5,7.8,63,0.00,,,0.00,WUHU216HW,2013-04-24 18:29:00,
2013-04-24 13:34:00,44.3,32.0,30.07,NW,317,3.6,7.8,62,0.00,,,0.00,WUHU216HW,2013-04-24 18:34:00,
2013-04-24 13:39:00,44.3,32.0,30.07,NNW,338,4.1,6.5,62,0.00,,,0.00,WUHU216HW,2013-04-24 18:39:00,
2013-04-24 13:44:00,44.5,32.2,30.07,NNE,25,2.9,5.9,62,0.00,,,0.00,WUHU216HW,2013-04-24 18:44:00,
2013-04-24 13:49:00,45.0,33.1,30.07,North,0,7.8,7.8,63,0.00,,,0.00,WUHU216HW,2013-04-24 18:49:00,
2013-04-24 13:54:00,45.0,32.4,30.08,North,354,2.7,7.8,61,0.00,,,0.00,WUHU216HW,2013-04-24 18:54:00,
2013-04-24 13:59:00,45.0,32.8,30.08,North,355,2.7,7.8,62,0.00,,,0.00,WUHU216HW,2013-04-24 18:59:00,
2013-04-24 14:04:00,45.4,32.3,30.08,NNE,22,4.7,7.0,60,0.00,,,0.00,WUHU216HW,2013-04-24 19:04:00,
2013-04-24 14:09:00,45.4,31.9,30.07,North,1,4.7,7.6,59,0.00,,,0.00,WUHU216HW,2013-04-24 19:09:00,
2013-04-24 14:14:00,45.2,32.6,30.07,NW,324,3.3,7.6,61,0.00,,,0.00,WUHU216HW,2013-04-24 19:14:00,
2013-04-24 14:19:00,45.7,32.7,30.08,NW,315,5.4,6.5,60,0.00,,,0.00,WUHU216HW,2013-04-24 19:19:00,
2013-04-24 14:24:00,46.1,32.9,30.07,NNW,347,5.0,6.5,60,0.00,,,0.00,WUHU216HW,2013-04-24 19:24:00,
2013-04-24 14:29:00,46.3,32.7,30.07,ENE,68,4.1,8.3,59,0.00,,,0.00,WUHU216HW,2013-04-24 19:29:00,
2013-04-24 14:34:00,46.4,32.9,30.08,North,352,1.5,8.3,59,0.00,,,0.00,WUHU216HW,2013-04-24 19:34:00,
2013-04-24 14:39:00,46.4,32.9,30.08,NW,322,2.8,6.7,59,0.00,,,0.00,WUHU216HW,2013-04-24 19:39:00,
2013-04-24 14:44:00,46.4,33.3,30.08,North,0,4.1,6.7,60,0.00,,,0.00,WUHU216HW,2013-04-24 19:44:00,
2013-04-24 14:49:00,47.2,34.4,30.08,NNW,338,2.6,4.1,61,0.00,,,0.00,WUHU216HW,2013-04-24 19:49:00,
2013-04-24 14:54:00,47.5,34.4,30.08,NE,45,3.0,4.1,60,0.00,,,0.00,WUHU216HW,2013-04-24 19:54:00,
2013-04-24 14:59:00,47.9,33.9,30.08,NW,325,3.2,5.6,58,0.00,,,0.00,WUHU216HW,2013-04-24 19:59:00,
2013-04-24 15:04:00,47.5,33.9,30.07,NE,45,1.9,5.6,59,0.00,,,0.00,WUHU216HW,2013-04-24 20:04:00,
2013-04-24 15:09:00,47.9,34.3,30.07,ENE,64,2.0,2.6,59,0.00,,,0.00,WUHU216HW,2013-04-24 20:09:00,
2013-04-24 15:14:00,48.2,33.7,30.07,East,86,1.3,2.6,57,0.00,,,0.00,WUHU216HW,2013-04-24 20:14:00,
2013-04-24 15:19:00,48.6,34.5,30.07,NW,315,2.1,3.0,58,0.00,,,0.00,WUHU216HW,2013-04-24 20:19:00,
2013-04-24 15:24:00,49.0,33.9,30.08,NW,315,2.2,3.0,56,0.00,,,0.00,WUHU216HW,2013-04-24 20:24:00,
2013-04-24 15:29:00,49.0,34.4,30.08,WNW,296,1.5,2.4,57,0.00,,,0.00,WUHU216HW,2013-04-24 20:29:00,
2013-04-24 15:34:00,49.1,33.7,30.08,East,90,2.6,2.6,55,0.00,,,0.00,WUHU216HW,2013-04-24 20:34:00,
2013-04-24 15:39:00,49.5,34.8,30.08,NNE,33,1.6,4.6,57,0.00,,,0.00,WUHU216HW,2013-04-24 20:39:00,
2013-04-24 15:44:00,50.0,35.8,30.08,West,270,1.3,4.8,58,0.00,,,0.00,WUHU216HW,2013-04-24 20:44:00,
2013-04-24 15:49:00,50.8,35.6,30.07,NW,315,4.1,4.8,56,0.00,,,0.00,WUHU216HW,2013-04-24 20:49:00,
2013-04-24 15:54:00,50.2,34.7,30.07,WNW,292,1.6,5.6,55,0.00,,,0.00,WUHU216HW,2013-04-24 20:54:00,
2013-04-24 15:59:00,50.4,35.7,30.07,WSW,248,3.5,5.6,57,0.00,,,0.00,WUHU216HW,2013-04-24 20:59:00,
2013-04-24 16:04:00,50.9,35.7,30.07,WSW,255,3.0,6.5,56,0.00,,,0.00,WUHU216HW,2013-04-24 21:04:00,
2013-04-24 16:09:00,50.9,34.8,30.07,NNW,332,1.6,6.5,54,0.00,,,0.00,WUHU216HW,2013-04-24 21:09:00,
2013-04-24 16:14:00,50.8,34.2,30.07,NNW,327,1.6,4.1,53,0.00,,,0.00,WUHU216HW,2013-04-24 21:14:00,
2013-04-24 16:19:00,50.6,34.5,30.07,SE,125,0.5,4.1,54,0.00,,,0.00,WUHU216HW,2013-04-24 21:19:00,
2013-04-24 16:24:00,51.1,35.5,30.07,WSW,248,1.3,3.0,55,0.00,,,0.00,WUHU216HW,2013-04-24 21:24:00,
2013-04-24 16:29:00,51.8,36.5,30.07,SSE,161,1.9,3.0,56,0.00,,,0.00,WUHU216HW,2013-04-24 21:29:00,
2013-04-24 16:34:00,52.2,35.1,30.07,WSW,248,5.4,5.4,52,0.00,,,0.00,WUHU216HW,2013-04-24 21:34:00,
2013-04-24 16:39:00,52.2,34.7,30.07,WSW,257,3.9,6.7,51,0.00,,,0.00,WUHU216HW,2013-04-24 21:39:00,
2013-04-24 16:44:00,52.2,33.6,30.07,WSW,248,11.8,11.8,49,0.00,,,0.00,WUHU216HW,2013-04-24 21:44:00,
2013-04-24 16:49:00,51.8,34.7,30.07,WSW,247,1.9,11.8,52,0.00,,,0.00,WUHU216HW,2013-04-24 21:49:00,
2013-04-24 16:54:00,52.2,35.6,30.07,WSW,253,2.2,8.6,53,0.00,,,0.00,WUHU216HW,2013-04-24 21:54:00,
2013-04-24 16:59:00,52.4,35.7,30.07,SSW,203,7.6,7.6,53,0.00,,,0.00,WUHU216HW,2013-04-24 21:59:00,
2013-04-24 17:04:00,52.4,35.7,30.07,WSW,239,1.3,11.5,53,0.00,,,0.00,WUHU216HW,2013-04-24 22:04:00,
2013-04-24 17:09:00,52.6,35.8,30.07,WSW,248,1.9,11.5,53,0.00,,,0.00,WUHU216HW,2013-04-24 22:09:00,
2013-04-24 17:14:00,52.7,35.6,30.07,SW,225,2.2,5.2,52,0.00,,,0.00,WUHU216HW,2013-04-24 22:14:00,
2013-04-24 17:19:00,52.7,36.0,30.07,SSW,203,2.6,5.2,53,0.00,,,0.00,WUHU216HW,2013-04-24 22:19:00,
2013-04-24 17:24:00,52.6,35.4,30.07,WSW,248,1.1,5.4,52,0.00,,,0.00,WUHU216HW,2013-04-24 22:24:00,
2013-04-24 17:29:00,52.0,33.5,30.07,West,261,3.1,7.8,49,0.00,,,0.00,WUHU216HW,2013-04-24 22:29:00,
2013-04-24 17:34:00,51.8,32.8,30.07,West,260,4.7,9.4,48,0.00,,,0.00,WUHU216HW,2013-04-24 22:34:00,
2013-04-24 17:39:00,51.7,33.7,30.07,WSW,255,5.4,9.4,50,0.00,,,0.00,WUHU216HW,2013-04-24 22:39:00,
2013-04-24 17:44:00,51.7,32.6,30.07,WSW,258,6.1,8.3,48,0.00,,,0.00,WUHU216HW,2013-04-24 22:44:00,
2013-04-24 17:49:00,51.5,32.9,30.07,West,270,5.9,8.3,49,0.00,,,0.00,WUHU216HW,2013-04-24 22:49:00,
2013-04-24 17:54:00,51.5,32.9,30.07,West,270,2.6,5.9,49,0.00,,,0.00,WUHU216HW,2013-04-24 22:54:00,
2013-04-24 17:59:00,51.5,33.5,30.07,West,261,3.3,5.4,50,0.00,,,0.00,WUHU216HW,2013-04-24 22:59:00,
2013-04-24 18:04:00,51.1,31.5,30.07,WSW,248,11.3,11.3,47,0.00,,,0.00,WUHU216HW,2013-04-24 23:04:00,
2013-04-24 18:09:00,50.8,31.8,30.07,WSW,252,4.1,11.3,48,0.00,,,0.00,WUHU216HW,2013-04-24 23:09:00,
2013-04-24 18:14:00,50.8,32.9,30.07,WSW,248,3.0,11.3,50,0.00,,,0.00,WUHU216HW,2013-04-24 23:14:00,
2013-04-24 18:19:00,50.8,32.9,30.08,SW,218,2.3,7.0,50,0.00,,,0.00,WUHU216HW,2013-04-24 23:19:00,
2013-04-24 18:24:00,50.6,33.1,30.08,West,270,4.1,7.0,51,0.00,,,0.00,WUHU216HW,2013-04-24 23:24:00,
2013-04-24 18:29:00,50.0,31.7,30.08,WSW,248,3.2,9.1,49,0.00,,,0.00,WUHU216HW,2013-04-24 23:29:00,
2013-04-24 18:34:00,50.0,31.7,30.08,West,270,6.5,9.1,49,0.00,,,0.00,WUHU216HW,2013-04-24 23:34:00,
2013-04-24 18:39:00,49.9,31.5,30.09,WSW,253,5.5,12.1,49,0.00,,,0.00,WUHU216HW,2013-04-24 23:39:00,
2013-04-24 18:44:00,49.5,31.2,30.09,WSW,243,2.2,12.1,49,0.00,,,0.00,WUHU216HW,2013-04-24 23:44:00,
2013-04-24 18:49:00,50.0,32.2,30.09,SW,225,4.1,8.9,50,0.00,,,0.00,WUHU216HW,2013-04-24 23:49:00,
2013-04-24 18:54:00,50.0,31.7,30.10,SW,225,4.1,8.9,49,0.00,,,0.00,WUHU216HW,2013-04-24 23:54:00,
2013-04-24 18:59:00,49.7,31.3,30.09,WSW,252,3.4,6.7,49,0.00,,,0.00,WUHU216HW,2013-04-24 23:59:00,
2013-04-24 19:04:00,49.1,31.3,30.10,West,261,4.7,9.4,50,0.00,,,0.00,WUHU216HW,2013-04-25 00:04:00,
2013-04-24 19:09:00,48.8,31.4,30.10,WSW,238,2.1,9.4,51,0.00,,,0.00,WUHU216HW,2013-04-25 00:09:00,
2013-04-24 19:14:00,48.6,31.7,30.10,SW,229,3.6,7.6,52,0.00,,,0.00,WUHU216HW,2013-04-25 00:14:00,
2013-04-24 19:19:00,48.4,32.1,30.10,WSW,241,2.1,4.3,53,0.00,,,0.00,WUHU216HW,2013-04-25 00:19:00,
2013-04-24 19:24:00,48.2,32.3,30.10,SW,217,3.1,4.6,54,0.00,,,0.00,WUHU216HW,2013-04-25 00:24:00,
2013-04-24 19:29:00,48.1,32.6,30.10,SW,232,2.1,4.6,55,0.00,,,0.00,WUHU216HW,2013-04-25 00:29:00,
2013-04-24 19:34:00,47.9,32.4,30.10,SW,225,1.5,3.7,55,0.00,,,0.00,WUHU216HW,2013-04-25 00:34:00,
2013-04-24 19:39:00,47.5,32.6,30.11,WSW,242,1.7,3.5,56,0.00,,,0.00,WUHU216HW,2013-04-25 00:39:00,
2013-04-24 19:44:00,47.3,32.9,30.11,SW,224,2.5,4.3,57,0.00,,,0.00,WUHU216HW,2013-04-25 00:44:00,
2013-04-24 19:49:00,47.2,32.7,30.11,SW,225,1.9,4.3,57,0.00,,,0.00,WUHU216HW,2013-04-25 00:49:00,
2013-04-24 19:54:00,47.0,32.5,30.11,SSW,203,2.2,4.3,57,0.00,,,0.00,WUHU216HW,2013-04-25 00:54:00,
2013-04-24 19:59:00,46.8,32.3,30.11,SW,225,5.4,5.4,57,0.00,,,0.00,WUHU216HW,2013-04-25 00:59:00,
2013-04-24 20:04:00,46.4,32.0,30.12,SW,218,1.8,5.4,57,0.00,,,0.00,WUHU216HW,2013-04-25 01:04:00,
2013-04-24 20:09:00,46.4,32.0,30.12,SW,225,1.3,4.8,57,0.00,,,0.00,WUHU216HW,2013-04-25 01:09:00,
2013-04-24 20:14:00,46.3,32.2,30.12,SW,231,1.7,3.0,58,0.00,,,0.00,WUHU216HW,2013-04-25 01:14:00,
2013-04-24 20:19:00,46.1,32.0,30.12,SW,225,1.7,3.7,58,0.00,,,0.00,WUHU216HW,2013-04-25 01:19:00,
2013-04-24 20:24:00,45.9,32.0,30.13,SW,225,1.6,3.7,58,0.00,,,0.00,WUHU216HW,2013-04-25 01:24:00,
2013-04-24 20:29:00,45.7,32.2,30.13,SSW,203,1.3,2.2,59,0.00,,,0.00,WUHU216HW,2013-04-25 01:29:00,
2013-04-24 20:34:00,45.5,32.0,30.13,SW,225,1.3,2.2,59,0.00,,,0.00,WUHU216HW,2013-04-25 01:34:00,
2013-04-24 20:39:00,45.4,31.9,30.13,SW,234,0.9,2.2,59,0.00,,,0.00,WUHU216HW,2013-04-25 01:39:00,
2013-04-24 20:44:00,45.2,32.1,30.13,SSW,196,1.3,2.2,60,0.00,,,0.00,WUHU216HW,2013-04-25 01:44:00,
2013-04-24 20:49:00,45.0,32.1,30.14,SW,219,1.1,3.0,60,0.00,,,0.00,WUHU216HW,2013-04-25 01:49:00,
2013-04-24 20:54:00,44.8,31.9,30.14,SW,220,0.9,3.0,60,0.00,,,0.00,WUHU216HW,2013-04-25 01:54:00,
2013-04-24 20:59:00,44.6,32.0,30.14,SSW,203,2.4,3.2,61,0.00,,,0.00,WUHU216HW,2013-04-25 01:59:00,
2013-04-24 21:04:00,44.5,31.9,30.14,SW,225,1.1,3.2,61,0.00,,,0.00,WUHU216HW,2013-04-25 02:04:00,
2013-04-24 21:09:00,44.3,31.7,30.14,South,191,2.6,4.3,61,0.00,,,0.00,WUHU216HW,2013-04-25 02:09:00,
2013-04-24 21:14:00,44.3,32.5,30.15,SW,225,1.6,4.3,63,0.00,,,0.00,WUHU216HW,2013-04-25 02:14:00,
2013-04-24 21:19:00,44.3,32.5,30.15,SSW,203,2.2,3.0,63,0.00,,,0.00,WUHU216HW,2013-04-25 02:19:00,
2013-04-24 21:24:00,44.1,32.3,30.15,SSW,210,1.8,2.6,63,0.00,,,0.00,WUHU216HW,2013-04-25 02:24:00,
2013-04-24 21:29:00,43.9,32.1,30.15,SSW,203,3.0,3.5,63,0.00,,,0.00,WUHU216HW,2013-04-25 02:29:00,
2013-04-24 21:34:00,43.7,32.0,30.15,South,180,3.0,4.3,63,0.00,,,0.00,WUHU216HW,2013-04-25 02:34:00,
2013-04-24 21:39:00,43.6,32.1,30.15,SSW,203,2.2,4.3,64,0.00,,,0.00,WUHU216HW,2013-04-25 02:39:00,
2013-04-24 21:44:00,43.4,32.0,30.15,SSW,207,2.2,3.5,64,0.00,,,0.00,WUHU216HW,2013-04-25 02:44:00,
2013-04-24 21:49:00,43.2,31.8,30.15,South,185,2.7,3.5,64,0.00,,,0.00,WUHU216HW,2013-04-25 02:49:00,
2013-04-24 21:54:00,43.0,32.4,30.15,South,190,2.7,4.8,66,0.00,,,0.00,WUHU216HW,2013-04-25 02:54:00,
2013-04-24 21:59:00,43.0,32.4,30.15,SSW,194,1.9,4.8,66,0.00,,,0.00,WUHU216HW,2013-04-25 02:59:00,
2013-04-24 22:04:00,42.8,32.2,30.15,SSW,199,2.2,3.5,66,0.00,,,0.00,WUHU216HW,2013-04-25 03:04:00,
2013-04-24 22:09:00,42.7,32.5,30.15,SW,216,2.5,4.6,67,0.00,,,0.00,WUHU216HW,2013-04-25 03:09:00,
2013-04-24 22:14:00,42.7,32.0,30.15,SSE,158,4.1,4.6,66,0.00,,,0.00,WUHU216HW,2013-04-25 03:14:00,
2013-04-24 22:19:00,42.5,32.3,30.15,SSW,203,2.2,4.3,67,0.00,,,0.00,WUHU216HW,2013-04-25 03:19:00,
2013-04-24 22:24:00,42.5,32.3,30.15,SSW,203,3.2,4.3,67,0.00,,,0.00,WUHU216HW,2013-04-25 03:24:00,
2013-04-24 22:29:00,42.3,32.5,30.15,SSW,203,3.0,4.3,68,0.00,,,0.00,WUHU216HW,2013-04-25 03:29:00,
2013-04-24 22:34:00,42.1,32.3,30.15,SSW,203,3.0,4.3,68,0.00,,,0.00,WUHU216HW,2013-04-25 03:34:00,
2013-04-24 22:39:00,42.1,32.3,30.15,SSW,193,1.7,4.1,68,0.00,,,0.00,WUHU216HW,2013-04-25 03:39:00,
2013-04-24 22:44:00,42.1,33.1,30.15,SSW,196,3.0,4.8,70,0.00,,,0.00,WUHU216HW,2013-04-25 03:44:00,
2013-04-24 22:49:00,42.1,32.8,30.15,SSW,203,2.5,4.8,69,0.00,,,0.00,WUHU216HW,2013-04-25 03:49:00,
2013-04-24 22:54:00,41.9,32.1,30.15,SSW,203,2.3,4.1,68,0.00,,,0.00,WUHU216HW,2013-04-25 03:54:00,
2013-04-24 22:59:00,41.9,32.1,30.15,SSW,201,2.5,4.1,68,0.00,,,0.00,WUHU216HW,2013-04-25 03:59:00,
2013-04-24 23:01:00,41.9,32.9,30.15,SSW,203,1.9,4.1,70,0.00,,,0.00,WUHU216HW,2013-04-25 04:01:00,
2013-04-24 23:06:00,41.8,32.4,30.15,South,190,3.1,5.2,69,0.00,,,0.00,WUHU216HW,2013-04-25 04:06:00,
2013-04-24 23:11:00,41.8,32.4,30.15,South,180,3.0,5.2,69,0.00,,,0.00,WUHU216HW,2013-04-25 04:11:00,
2013-04-24 23:16:00,41.6,32.6,30.15,South,180,3.0,3.7,70,0.00,,,0.00,WUHU216HW,2013-04-25 04:16:00,
2013-04-24 23:21:00,41.4,32.1,30.15,SSW,195,3.1,4.1,69,0.00,,,0.00,WUHU216HW,2013-04-25 04:21:00,
2013-04-24 23:26:00,41.4,32.4,30.15,SSW,203,4.1,4.1,70,0.00,,,0.00,WUHU216HW,2013-04-25 04:26:00,
2013-04-24 23:31:00,41.4,32.8,30.15,South,180,3.7,4.1,71,0.00,,,0.00,WUHU216HW,2013-04-25 04:31:00,
2013-04-24 23:36:00,41.4,32.8,30.15,SSW,203,3.0,3.7,71,0.00,,,0.00,WUHU216HW,2013-04-25 04:36:00,
2013-04-24 23:41:00,41.2,32.6,30.15,SSW,207,2.4,5.2,71,0.00,,,0.00,WUHU216HW,2013-04-25 04:41:00,
2013-04-24 23:46:00,41.2,32.6,30.15,SSW,198,4.5,5.2,71,0.00,,,0.00,WUHU216HW,2013-04-25 04:46:00,
2013-04-24 23:51:00,41.0,32.4,30.15,SSW,206,2.4,6.1,71,0.00,,,0.00,WUHU216HW,2013-04-25 04:51:00,
2013-04-24 23:56:00,41.0,32.4,30.15,SSW,196,2.7,6.1,71,0.00,,,0.00,WUHU216HW,2013-04-25 04:56:00,